Jacobsburg, Ohio
Current Conditions -  °F | °C
As of 10:53 PM on Wednesday 28 Jan 2015 (Local Time) from KHLG Reporting Station
Clear Clear  
Wind Chill: 10°   Ceiling: Unl
Heat Index: 19°   Visibility: 10mi
Dew Point: 10°   Wind: 7mph
Humidity: 68%   Direction: 120°ESE
Pressure: 30.25"   Gusts: NA
Location:  39.97°N, 80.9°W
Report Text: KHLG 290353Z AUTO 12006KT 10SM CLR M07/M12 A3025 RMK AO2 SLP268 T10721122
Loading
Personal Weather Stations






























Interactive Weather Map New forecast layout! Learn more

10-Day Weather Forecast

Advertisements
Track Severe Weather on mobile